Etusivu
METAR-TAF:

METAR-TAF

Lentoasemat :

Arvidsjaur, Ruotsi

Leveyspiiri: 65-35-25N, Pituuspiiri: 019-16-55E, korkeus merenpinnasta: 379 m

Tämänhetkinen sää

Tämä raportti tehtiin 20 minuuttia sitten, kello 18.20 UTC
Tuuli 7 kn kaakosta
Lämpötila 10°C
Kosteus 87%
Ilmanpaine 1029 hPa
Näkyvyys 10 km tai enemmän
Hajonneita pilviä 1300 ft:n korkeudessa
Pilvistä 3300 ft:n korkeudessa

METAR: ESNX 221820Z 13007KT 9999 BKN013 OVC033 10/08 Q1029

Aika: 20:40 (18:40 UTC)

Sääennuste

Tämä raportti tehtiin 1 tunti ja 10 minuuttia sitten, kello 17.30 UTC
Ennuste voimassa 22. päivästä klo 18 UTC - 22. päivään klo 20 UTC
Tuuli 7 kn etelästä/kaakosta
Näkyvyys 10 km tai enemmän
Muutamia pilviä 1500 ft:n korkeudessa
Hajonneita pilviä 2500 ft:n korkeudessa
Todennäköisyys 40%
22. päivästä klo 18 UTC - 22. päivään klo 20 UTC
Hajonneita pilviä 700 ft:n korkeudessa

TAF: ESNX 221730Z 2218/2220 16007KT 9999 FEW015 BKN025 PROB40 2218/2220 BKN007

Säähavainnot ja -ennusteet yli 4000 lentoasemalta (METAR- ja TAF-raportit).

Käytössä olevat sääasemat on merkitty karttaan keltaisilla ja punaisilla pisteillä.

Aseta hiiri pisteen päälle nähdäksesi sääaseman nimen.

Klikkaa sitten nähdäksesi säähavainnot ja -ennusteet.

Kartan vaihtaminen: klikkaa mustalla rastilla varustettuja vihreitä pisteitä, niin voit zoomata sisään; viivalla varustettua vihreää pistettä, niin voit zoomata ulos tai vihreitä nuolia, niin pääset viereisille kartoille.


METAR-TAF: